Main page
METAR-TAF:

METAR-TAF

Airports :

Luang Prabang International Airport

Luang Prabang, Laos

latitude: 19-53N, longitude: 102-08E, elevation: 305 m

Current weather observation

The report was made 6 hours and 4 minutes ago, at 13:00 UTC
Wind 4 kt from the North
Temperature 20°C
Humidity 40%
Pressure 1022 hPa
Visibility 10 km or more
Few clouds at a height of 2000 ft

METAR: VLLB 061300Z 36004KT 9999 FEW020 20/06 Q1022 NOSIG

Time: 02:04 (19:04 UTC)

Forecast

The report was made 2 hours and 4 minutes ago, at 17:00 UTC
Forecast valid from 06 at 18 UTC to 07 at 18 UTC
Wind 8 kt from the North
Visibility 10 km or more
Few clouds at a height of 2000 ft

TAF: VLLB 061700Z 0618/0718 36008KT 9999 FEW020

Weather observations and forecasts of more than 4000 airports (METAR and TAF reports).

The available stations are represented by yellow and red dots on the map.

Hover mouse over dot to see the name of the station.

Then click to see weather observations and forecasts.

To change the map : click on the green buttons with a black cross to zoom in, on the green button with a dash to zoom out, or on the green arrows for adjacent maps.


METAR-TAF: